Station Nord

KL  EN  DA
ASIAQ
Weather Now GREENLAND SURVEY
Updated [WGT/WGST] Temperature [°C] Wind [m/s] Air pressure [hPa] Relative humidity [%] Precipitation [mm]
Present Wind chill Speed Max
19.10 00:00-17,1-23,42,6 ⇙2,6101079n/a
18.10 23:00-14,3-19,32,1 ⇐2,6100962n/a
18.10 22:00-15,4-19,31,5 ⇐2,1100965n/a
18.10 21:00-17,9-23,52,1 ⇙2,6100972n/a
18.10 20:00-17,20,01,0 ⇙1,5100971n/a
18.10 19:00-15,30,01,0 ⇓1,5100967n/a
18.10 18:00-15,9-19,91,5 ⇐2,1100969n/a
18.10 17:00-15,9-21,22,1 ⇐2,6100969n/a
18.10 16:00-17,20,01,0 ⇑2,1100969n/a
18.10 15:00-16,6-20,71,5 ⇒3,1100971n/a
18.10 14:00-15,0-23,85,1 ⇗6,7100967n/a
18.10 13:00-14,9-24,56,2 ⇗6,7100967n/a
18.10 12:00-14,7-24,36,2 ⇗7,2100964n/a
18.10 11:00-15,1-24,86,2 ⇗7,2101066n/a
18.10 10:00-16,4-25,55,1 ⇗6,2101070n/a
18.10 09:00-14,5-25,07,7 ⇗8,8100966n/a
18.10 08:00-14,8-25,78,2 ⇗8,8100967n/a
18.10 07:00-15,0-26,38,8 ⇗9,8100967n/a
18.10 06:00-14,8-25,78,2 ⇗9,3100966n/a
18.10 05:00-14,5-25,07,7 ⇗8,8100967n/a
18.10 04:00-14,9-24,56,2 ⇗7,2100969n/a
18.10 03:00-14,6-21,23,1 ⇒3,6100971n/a
18.10 02:00-14,4-22,64,6 ⇗6,2100972n/a
18.10 01:00-14,3-22,04,1 ⇗4,6100976n/a
18.10 00:00-15,0-20,92,6 ⇑3,1100979n/a
Position: (81.603333333,-16.66333333)

[Back]